2022年8月11日

时间 代码 天气 温度 能见度 天花板 METAR/SPECI
10:00 上午
V
79 °F 15 mi - 280° 280° 6 kt METAR CYYC 111600Z 28006KT 260V320 15SM FEW060 SCT240 26/11 A3004 RMK CU1CC3 CU TR HZ SLP153 DENSITY ALT 5600FT
9:00 上午
V
79 °F 15 mi 24.000 ft 290° 290° 12 kt METAR CYYC 111500Z 29012KT 15SM FEW064 BKN240 26/10 A3004 RMK CU1CC6 CU TR HZ SLP153 DENSITY ALT 5600FT
8:00 上午
V
72 °F 15 mi 23.000 ft Var Var 2 kt METAR CYYC 111400Z VRB02KT 15SM FEW040 SCT070 BKN230 22/11 A3004 RMK CU1AC4CI2 CU TR CC ASOCTD / HZ SLP156 DENSITY ALT 5100FT
7:00 上午
V
66 °F 20 mi - 190° 190° 5 kt METAR CYYC 111300Z 19005KT 140V270 20SM FEW040 SCT240 19/10 A3003 RMK SC1CI3 SC TR SLP154 DENSITY ALT 4800FT
6:00 上午
V
70 °F 15 mi - Var Var 2 kt METAR CYYC 111200Z VRB02KT 15SM FEW230 21/10 A3002 RMK CI2 SLP150 DENSITY ALT 5000FT
5:00 上午
V
61 °F 15 mi - 190° 190° 4 kt METAR CYYC 111100Z 19004KT 170V290 15SM FEW230 16/12 A3003 RMK CI2 SLP158 DENSITY ALT 4400FT
4:00 上午
V
63 °F 15 mi - 210° 210° 2 kt METAR CYYC 111000Z 21002KT 15SM FEW230 17/13 A3003 RMK CI1 SLP157 DENSITY ALT 4600FT
3:00 上午
V
68 °F 15 mi - 230° 230° 6 kt METAR CYYC 110900Z 23006KT 15SM SCT230 20/12 A3004 RMK CI3 SLP159 DENSITY ALT 4900FT
2:00 上午
V
66 °F 15 mi - 180° 180° 6 kt METAR CYYC 110800Z 18006KT 15SM SCT230 19/13 A3004 RMK CI4 SLP163 DENSITY ALT 4800FT
1:00 上午
V
70 °F 15 mi 23.000 ft 180° 180° 5 kt METAR CYYC 110700Z 18005KT 15SM BKN230 21/12 A3005 RMK CI7 SLP164 DENSITY ALT 5000FT
12:00 上午
V
70 °F 15 mi 23.000 ft 190° 190° 6 kt METAR CYYC 110600Z 19006KT 15SM FEW096 OVC230 21/12 A3005 RMK AC1CI7 SLP165 DENSITY ALT 5000FT

2022年8月10日

时间 代码 天气 温度 能见度 天花板 METAR/SPECI
11:00 下午
V
72 °F 15 mi - 180° 180° 4 kt METAR CYYC 110500Z 18004KT 15SM FEW120 SCT220 22/12 A3007 RMK AC2CI1 SLP171 DENSITY ALT 5100FT
10:00 下午
V
73 °F 15 mi 22.000 ft 170° 170° 7 kt METAR CYYC 110400Z 17007KT 15SM FEW100 SCT120 BKN220 23/12 A3007 RMK AC1AC3CI2 SLP171 DENSITY ALT 5200FT
9:00 下午
V
77 °F 12 mi 9.800 ft 180° 180° 11 kt METAR CYYC 110300Z 18011KT 12SM BKN098 BKN130 25/11 A3007 RMK AC6AC1 SLP172 DENSITY ALT 5400FT
6:00 上午
V
63 °F 15 mi 12.000 ft 350° 350° 3 kt METAR CYYC 101200Z 35003KT 280V010 15SM BKN120 BKN140 17/09 A3012 RMK AC6AS1 SLP191 DENSITY ALT 4500FT
5:35 上午
V
63 °F 15 mi 11.000 ft 150° 150° 2 kt METAR CYYC 101135Z 15002KT 15SM BKN110 17/09 A3012 RMK AC7 SLP190 DENSITY ALT 4500FT
5:17 上午
V
63 °F 15 mi 12.000 ft 160° 160° 7 kt METAR CYYC 101117Z 16007KT 15SM -RA FEW096 BKN120 17/09 A3012 RMK AC1AS6 SLP187 DENSITY ALT 4500FT
5:00 上午
V
64 °F 15 mi 12.000 ft 120° 120° 5 kt METAR CYYC 101100Z 12005KT 080V150 15SM BKN120 18/08 A3012 RMK AS7 SLP187 DENSITY ALT 4600FT
4:00 上午
V
63 °F 15 mi 12.000 ft 160° 160° 5 kt METAR CYYC 101000Z 16005KT 15SM BKN120 17/08 A3013 RMK AC6 SLP190 DENSITY ALT 4500FT
3:00 上午
V
66 °F 15 mi 15.000 ft 160° 160° 7 kt METAR CYYC 100900Z 16007KT 15SM FEW120 BKN150 19/08 A3013 RMK AC2AC4 SLP189 DENSITY ALT 4700FT
2:00 上午
V
68 °F 15 mi 15.000 ft 150° 150° 7 kt METAR CYYC 100800Z 15007KT 15SM FEW120 BKN150 20/08 A3013 RMK AC2AC3 SLP190 DENSITY ALT 4800FT
1:00 上午
V
68 °F 15 mi 12.000 ft 160° 160° 11 kt METAR CYYC 100700Z 16011KT 15SM FEW082 BKN120 20/07 A3014 RMK AC1AC5 SLP195 DENSITY ALT 4900FT
12:27 上午
V
70 °F 15 mi 12.000 ft 170° 170° 5 - 15 kt METAR CYYC 100627Z 17005G15KT 15SM BKN120 21/07 A3015 RMK AC6 SLP198 DENSITY ALT 4900FT
12:00 上午
V
70 °F 15 mi 13.000 ft 150° 150° 11 - 19 kt METAR CYYC 100600Z 15011G19KT 15SM -RA SCT080 BKN130 21/08 A3015 RMK AC3AS4 SLP199 DENSITY ALT 4900FT

2022年8月9日

时间 代码 天气 温度 能见度 天花板 METAR/SPECI
11:22 下午
V
72 °F 15 mi 9.100 ft 150° 150° 11 kt METAR CYYC 100522Z 15011KT 15SM -RA FEW050 BKN091 BKN150 22/07 A3015 RMK SC1AC5AC1 SLP200 DENSITY ALT 5000FT
11:00 下午
V
72 °F 15 mi 13.000 ft 130° 130° 10 kt METAR CYYC 100500Z 13010KT 15SM FEW073 SCT100 BKN130 22/07 A3014 RMK AC1AC3AC3 AC TR SLP197 DENSITY ALT 5000FT
10:00 下午
V
72 °F 15 mi 8.900 ft 130° 130° 8 kt METAR CYYC 100400Z 13008KT 15SM BKN089 BKN110 22/07 A3014 RMK AC5AC2 SLP198 DENSITY ALT 5100FT
9:00 下午
V
73 °F 20 mi 13.000 ft 120° 120° 8 kt METAR CYYC 100300Z 12008KT 20SM BKN130 23/07 A3012 RMK AC7 SLP193 DENSITY ALT 5100FT
8:00 下午
V
73 °F 20 mi 16.000 ft 110° 110° 12 kt METAR CYYC 100200Z 11012KT 20SM BKN160 BKN210 23/08 A3012 RMK AC6CI1 SLP194 DENSITY ALT 5200FT
7:00 下午
V
75 °F 15 mi 22.000 ft 130° 130° 15 kt METAR CYYC 100100Z 13015KT 15SM BKN220 24/07 A3012 RMK CI7 SLP195 DENSITY ALT 5300FT
6:00 下午
V
79 °F 15 mi 24.000 ft 120° 120° 12 - 18 kt METAR CYYC 100000Z 12012G18KT 15SM OVC240 26/07 A3012 RMK CI8 SLP192 DENSITY ALT 5500FT
5:00 下午
V
79 °F 15 mi 30.000 ft 140° 140° 11 - 16 kt METAR CYYC 092300Z 14011G16KT 15SM BKN300 26/06 A3012 RMK CI7 SLP189 DENSITY ALT 5500FT
4:00 下午
V
81 °F 15 mi - 140° 140° 12 - 20 kt METAR CYYC 092200Z 14012G20KT 120V180 15SM FEW230 27/05 A3012 RMK CI2 SLP191 DENSITY ALT 5600FT
3:00 下午
V
79 °F 15 mi - 170° 170° 14 - 19 kt METAR CYYC 092100Z 17014G19KT 15SM FEW230 26/05 A3013 RMK CI1 SLP194 DENSITY ALT 5500FT
2:00 下午
V
77 °F 15 mi - 160° 160° 14 - 22 kt METAR CYYC 092000Z 16014G22KT 15SM FEW230 25/06 A3015 RMK CI1 SLP200 DENSITY ALT 5400FT
1:00 下午
V
75 °F 15 mi - 160° 160° 14 - 21 kt METAR CYYC 091900Z 16014G21KT 15SM FEW190 24/05 A3017 RMK AC1 SLP209 DENSITY ALT 5200FT
12:00 下午
V
72 °F 15 mi - 180° 180° 17 - 22 kt METAR CYYC 091800Z 18017G22KT 15SM FEW150 22/05 A3019 RMK AC1 AC TR SLP217 DENSITY ALT 5000FT
11:00 上午
V
70 °F 10 mi - 180° 180° 16 - 22 kt METAR CYYC 091700Z 18016G22KT 10SM SKC 21/06 A3020 RMK SLP223 DENSITY ALT 4800FT
10:00 上午
V
66 °F 10 mi - 170° 170° 15 kt METAR CYYC 091600Z 17015KT 10SM SKC 19/07 A3020 RMK SLP228 DENSITY ALT 4600FT
9:00 上午
V
63 °F 10 mi - 170° 170° 13 - 18 kt METAR CYYC 091500Z 17013G18KT 10SM FEW150 17/07 A3021 RMK AC1 AC TR SLP230 DENSITY ALT 4400FT
较旧的数据

我们和第三方通过cookies跟踪您在我们网站上的上网行为。如果您继续,我们认为您同意我们的cookie政策。 了解更多